createdAt,value
2017-04-27T00:00:03.259Z,1001.94
2017-04-27T00:15:02.957Z,1001.9
2017-04-27T00:30:02.924Z,1001.85
2017-04-27T00:45:02.853Z,1001.8
2017-04-27T01:00:03.070Z,1001.74
2017-04-27T01:15:02.907Z,1001.77
2017-04-27T01:30:02.969Z,1001.88
2017-04-27T01:45:03.123Z,1001.89
2017-04-27T02:00:02.617Z,1001.75
2017-04-27T02:15:02.496Z,1001.73
2017-04-27T02:30:03.224Z,1001.8
2017-04-27T02:45:02.911Z,1001.76
2017-04-27T03:00:02.656Z,1001.83
2017-04-27T03:15:02.429Z,1001.87
2017-04-27T03:30:03.084Z,1002.05
2017-04-27T03:45:02.542Z,1002.06
2017-04-27T04:00:03.037Z,1002.23
2017-04-27T04:15:03.131Z,1002.24
2017-04-27T04:30:02.456Z,1002.29
2017-04-27T04:45:03.089Z,1002.44
2017-04-27T05:00:03.149Z,1002.49
2017-04-27T05:15:03.144Z,1002.47
2017-04-27T05:30:02.938Z,1002.59
2017-04-27T05:45:02.978Z,1002.63
2017-04-27T06:00:02.859Z,1002.59
2017-04-27T06:15:02.828Z,1002.73
2017-04-27T06:30:02.519Z,1002.72
2017-04-27T06:45:03.004Z,1002.78
2017-04-27T07:00:03.119Z,1002.92
2017-04-27T07:15:02.522Z,1002.99
2017-04-27T07:30:03.162Z,1002.98
2017-04-27T07:45:02.650Z,1002.9
2017-04-27T08:00:02.490Z,1002.71
2017-04-27T08:15:02.620Z,1002.91
2017-04-27T08:30:02.748Z,1002.85
2017-04-27T08:45:03.222Z,1002.84
2017-04-27T09:00:02.541Z,1002.87
2017-04-27T09:15:03.007Z,1002.87
2017-04-27T09:30:03.029Z,1002.91
2017-04-27T09:45:03.197Z,1002.99
2017-04-27T10:00:02.878Z,1003.03
2017-04-27T10:15:02.627Z,1002.94
2017-04-27T10:30:03.380Z,1002.89
2017-04-27T10:45:02.912Z,1002.69
2017-04-27T11:00:02.640Z,1002.39
2017-04-27T11:15:02.768Z,1002.41
2017-04-27T11:30:02.507Z,1002.6
2017-04-27T11:45:03.003Z,1002.65
2017-04-27T12:00:02.586Z,1002.62
2017-04-27T12:15:03.040Z,1002.17
2017-04-27T12:30:02.463Z,1002.22
2017-04-27T12:45:02.914Z,1002.12
2017-04-27T13:00:02.796Z,1002.45
2017-04-27T13:15:02.583Z,1002.25
2017-04-27T13:30:03.254Z,1002.13
2017-04-27T13:45:02.736Z,1002.19
2017-04-27T14:00:03.059Z,1002.14
2017-04-27T14:15:02.908Z,1001.89
2017-04-27T14:30:02.571Z,1002.05
2017-04-27T14:45:03.074Z,1001.93
2017-04-27T15:00:02.783Z,1002.01
2017-04-27T15:15:02.682Z,1001.81
2017-04-27T15:30:02.975Z,1001.89
2017-04-27T15:45:03.197Z,1001.74
2017-04-27T16:00:02.717Z,1001.95
2017-04-27T16:15:02.504Z,1001.84
2017-04-27T16:30:02.905Z,1001.98
2017-04-27T16:45:03.343Z,1001.69
2017-04-27T17:00:02.822Z,1001.72
2017-04-27T17:15:02.832Z,1001.79
2017-04-27T17:30:02.830Z,1001.74
2017-04-27T17:45:03.119Z,1001.81
2017-04-27T18:00:21.718Z,1001.93
2017-04-27T18:02:29.943Z,1001.8
2017-04-27T18:15:02.367Z,1001.93
2017-04-27T18:30:02.965Z,1002.26
2017-04-27T18:45:03.403Z,1002.33
2017-04-27T19:00:03.150Z,1002.53
2017-04-27T19:15:02.724Z,1002.48
2017-04-27T19:30:02.422Z,1002.69
2017-04-27T19:45:02.890Z,1002.69
2017-04-27T20:00:03.331Z,1002.85
2017-04-27T20:15:03.325Z,1002.84
2017-04-27T20:30:03.341Z,1002.83
2017-04-27T20:45:02.996Z,1002.7
2017-04-27T21:00:03.264Z,1002.71
2017-04-27T21:15:02.885Z,1002.58
2017-04-27T21:30:02.691Z,1002.52
2017-04-27T21:45:03.171Z,1002.47
2017-04-27T22:00:02.695Z,1002.38
2017-04-27T22:15:02.448Z,1002.45
2017-04-27T22:30:02.554Z,1002.47
2017-04-27T22:45:03.059Z,1002.44
2017-04-27T23:00:03.149Z,1002.42
2017-04-27T23:15:03.293Z,1002.35
2017-04-27T23:30:02.498Z,1002.22
2017-04-27T23:45:03.279Z,1002.14
